sensor_id;sensor_type;location;lat;lon;timestamp;P1;durP1;ratioP1;P2;durP2;ratioP2
12812;SDS011;6471;50.932;6.934;2023-02-03T00:01:03;7.63;;;4.57;;
12812;SDS011;6471;50.932;6.934;2023-02-03T00:03:30;8.77;;;4.10;;
12812;SDS011;6471;50.932;6.934;2023-02-03T00:05:56;6.90;;;4.43;;
12812;SDS011;6471;50.932;6.934;2023-02-03T00:08:23;9.23;;;4.70;;
12812;SDS011;6471;50.932;6.934;2023-02-03T00:10:49;7.57;;;4.23;;
12812;SDS011;6471;50.932;6.934;2023-02-03T00:13:15;7.47;;;4.33;;
12812;SDS011;6471;50.932;6.934;2023-02-03T00:15:41;9.27;;;4.60;;
12812;SDS011;6471;50.932;6.934;2023-02-03T00:18:09;10.23;;;4.40;;
12812;SDS011;6471;50.932;6.934;2023-02-03T00:20:36;6.80;;;4.23;;
12812;SDS011;6471;50.932;6.934;2023-02-03T00:23:05;8.60;;;4.20;;
12812;SDS011;6471;50.932;6.934;2023-02-03T00:25:31;6.47;;;4.07;;
12812;SDS011;6471;50.932;6.934;2023-02-03T00:27:57;7.97;;;3.90;;
12812;SDS011;6471;50.932;6.934;2023-02-03T00:30:24;8.67;;;4.67;;
12812;SDS011;6471;50.932;6.934;2023-02-03T00:32:58;7.70;;;3.70;;
12812;SDS011;6471;50.932;6.934;2023-02-03T00:35:27;8.70;;;4.20;;
12812;SDS011;6471;50.932;6.934;2023-02-03T00:37:53;6.50;;;4.03;;
12812;SDS011;6471;50.932;6.934;2023-02-03T00:40:23;10.07;;;4.27;;
12812;SDS011;6471;50.932;6.934;2023-02-03T00:42:50;9.53;;;3.97;;
12812;SDS011;6471;50.932;6.934;2023-02-03T00:45:23;6.57;;;3.50;;
12812;SDS011;6471;50.932;6.934;2023-02-03T00:47:50;5.37;;;3.30;;
12812;SDS011;6471;50.932;6.934;2023-02-03T00:50:19;7.43;;;3.37;;
12812;SDS011;6471;50.932;6.934;2023-02-03T00:52:45;6.70;;;3.60;;
12812;SDS011;6471;50.932;6.934;2023-02-03T00:55:11;4.67;;;3.17;;
12812;SDS011;6471;50.932;6.934;2023-02-03T00:57:37;8.73;;;3.23;;
12812;SDS011;6471;50.932;6.934;2023-02-03T01:00:06;9.07;;;3.63;;
12812;SDS011;6471;50.932;6.934;2023-02-03T01:02:32;8.23;;;3.50;;
12812;SDS011;6471;50.932;6.934;2023-02-03T01:04:58;7.33;;;3.23;;
12812;SDS011;6471;50.932;6.934;2023-02-03T01:07:29;6.43;;;3.30;;
12812;SDS011;6471;50.932;6.934;2023-02-03T01:09:59;6.37;;;2.90;;
12812;SDS011;6471;50.932;6.934;2023-02-03T01:12:27;5.67;;;2.73;;
12812;SDS011;6471;50.932;6.934;2023-02-03T01:15:00;8.77;;;3.23;;
12812;SDS011;6471;50.932;6.934;2023-02-03T01:17:27;8.47;;;3.27;;
12812;SDS011;6471;50.932;6.934;2023-02-03T01:19:55;7.30;;;3.10;;
12812;SDS011;6471;50.932;6.934;2023-02-03T01:22:25;6.07;;;2.80;;
12812;SDS011;6471;50.932;6.934;2023-02-03T01:24:51;6.80;;;2.87;;
12812;SDS011;6471;50.932;6.934;2023-02-03T01:27:17;7.93;;;3.30;;
12812;SDS011;6471;50.932;6.934;2023-02-03T01:29:46;6.87;;;3.00;;
12812;SDS011;6471;50.932;6.934;2023-02-03T01:32:12;6.87;;;2.70;;
12812;SDS011;6471;50.932;6.934;2023-02-03T01:34:57;5.83;;;2.87;;
12812;SDS011;6471;50.932;6.934;2023-02-03T01:37:30;6.10;;;2.90;;
12812;SDS011;6471;50.932;6.934;2023-02-03T01:39:57;7.50;;;3.00;;
12812;SDS011;6471;50.932;6.934;2023-02-03T01:42:26;5.77;;;2.90;;
12812;SDS011;6471;50.932;6.934;2023-02-03T01:44:53;8.17;;;3.30;;
12812;SDS011;6471;50.932;6.934;2023-02-03T01:47:27;5.13;;;2.90;;
12812;SDS011;6471;50.932;6.934;2023-02-03T01:49:59;5.27;;;2.87;;
12812;SDS011;6471;50.932;6.934;2023-02-03T01:52:41;7.87;;;2.93;;
12812;SDS011;6471;50.932;6.934;2023-02-03T01:55:11;8.27;;;2.73;;
12812;SDS011;6471;50.932;6.934;2023-02-03T01:57:44;5.50;;;2.80;;
12812;SDS011;6471;50.932;6.934;2023-02-03T02:00:20;5.80;;;3.13;;
12812;SDS011;6471;50.932;6.934;2023-02-03T02:08:22;6.53;;;2.47;;
12812;SDS011;6471;50.932;6.934;2023-02-03T02:10:49;6.33;;;2.53;;
12812;SDS011;6471;50.932;6.934;2023-02-03T02:13:20;4.47;;;2.67;;
12812;SDS011;6471;50.932;6.934;2023-02-03T02:15:51;6.47;;;2.73;;
12812;SDS011;6471;50.932;6.934;2023-02-03T02:32:04;6.90;;;3.10;;
12812;SDS011;6471;50.932;6.934;2023-02-03T02:34:39;5.87;;;2.90;;
12812;SDS011;6471;50.932;6.934;2023-02-03T02:37:25;6.00;;;2.70;;
12812;SDS011;6471;50.932;6.934;2023-02-03T02:42:31;6.17;;;2.30;;
12812;SDS011;6471;50.932;6.934;2023-02-03T02:48:06;3.93;;;2.30;;
12812;SDS011;6471;50.932;6.934;2023-02-03T02:50:42;8.43;;;2.50;;
12812;SDS011;6471;50.932;6.934;2023-02-03T02:53:21;6.00;;;2.63;;
12812;SDS011;6471;50.932;6.934;2023-02-03T02:56:03;6.37;;;2.50;;
12812;SDS011;6471;50.932;6.934;2023-02-03T02:58:32;3.77;;;2.23;;
12812;SDS011;6471;50.932;6.934;2023-02-03T03:01:01;6.10;;;2.50;;
12812;SDS011;6471;50.932;6.934;2023-02-03T03:03:40;7.57;;;2.70;;
12812;SDS011;6471;50.932;6.934;2023-02-03T04:41:23;5.00;;;3.20;;
12812;SDS011;6471;50.932;6.934;2023-02-03T04:43:54;5.40;;;2.77;;
12812;SDS011;6471;50.932;6.934;2023-02-03T04:46:21;6.00;;;2.63;;
12812;SDS011;6471;50.932;6.934;2023-02-03T04:49:03;8.13;;;2.33;;
12812;SDS011;6471;50.932;6.934;2023-02-03T05:16:15;7.37;;;2.53;;
12812;SDS011;6471;50.932;6.934;2023-02-03T05:18:51;5.37;;;2.30;;
12812;SDS011;6471;50.932;6.934;2023-02-03T05:21:23;9.33;;;2.87;;
12812;SDS011;6471;50.932;6.934;2023-02-03T05:34:34;9.37;;;2.80;;
12812;SDS011;6471;50.932;6.934;2023-02-03T05:46:21;7.67;;;3.30;;
12812;SDS011;6471;50.932;6.934;2023-02-03T05:48:56;10.17;;;5.07;;
12812;SDS011;6471;50.932;6.934;2023-02-03T05:51:26;8.47;;;4.77;;
12812;SDS011;6471;50.932;6.934;2023-02-03T05:57:13;4.73;;;2.00;;
12812;SDS011;6471;50.932;6.934;2023-02-03T06:16:24;25.50;;;13.00;;
12812;SDS011;6471;50.932;6.934;2023-02-03T06:19:01;7.53;;;3.03;;
12812;SDS011;6471;50.932;6.934;2023-02-03T06:30:59;6.70;;;2.00;;
12812;SDS011;6471;50.932;6.934;2023-02-03T06:42:56;6.43;;;1.83;;
12812;SDS011;6471;50.932;6.934;2023-02-03T07:32:05;7.47;;;1.93;;
12812;SDS011;6471;50.932;6.934;2023-02-03T08:03:23;3.23;;;1.43;;
12812;SDS011;6471;50.932;6.934;2023-02-03T08:06:09;4.23;;;1.30;;
12812;SDS011;6471;50.932;6.934;2023-02-03T08:08:41;4.40;;;1.40;;
12812;SDS011;6471;50.932;6.934;2023-02-03T08:11:09;6.13;;;1.80;;
12812;SDS011;6471;50.932;6.934;2023-02-03T08:43:36;3.80;;;1.70;;
12812;SDS011;6471;50.932;6.934;2023-02-03T08:46:03;3.90;;;1.70;;
12812;SDS011;6471;50.932;6.934;2023-02-03T08:48:33;3.50;;;1.53;;
12812;SDS011;6471;50.932;6.934;2023-02-03T08:53:48;5.87;;;1.63;;
12812;SDS011;6471;50.932;6.934;2023-02-03T08:56:18;2.87;;;1.60;;
12812;SDS011;6471;50.932;6.934;2023-02-03T09:27:17;2.93;;;1.60;;
12812;SDS011;6471;50.932;6.934;2023-02-03T09:29:43;4.67;;;1.60;;
12812;SDS011;6471;50.932;6.934;2023-02-03T09:32:09;5.13;;;2.00;;
12812;SDS011;6471;50.932;6.934;2023-02-03T09:34:38;7.90;;;2.00;;
12812;SDS011;6471;50.932;6.934;2023-02-03T09:37:05;4.00;;;1.90;;
12812;SDS011;6471;50.932;6.934;2023-02-03T09:39:31;5.03;;;1.93;;
12812;SDS011;6471;50.932;6.934;2023-02-03T09:47:21;6.10;;;1.80;;
12812;SDS011;6471;50.932;6.934;2023-02-03T09:49:54;3.33;;;1.80;;
12812;SDS011;6471;50.932;6.934;2023-02-03T09:52:25;4.10;;;1.90;;
12812;SDS011;6471;50.932;6.934;2023-02-03T09:58:12;5.00;;;1.80;;
12812;SDS011;6471;50.932;6.934;2023-02-03T10:00:44;4.30;;;1.80;;
12812;SDS011;6471;50.932;6.934;2023-02-03T10:06:22;5.63;;;2.10;;
12812;SDS011;6471;50.932;6.934;2023-02-03T10:17:18;3.37;;;1.90;;
12812;SDS011;6471;50.932;6.934;2023-02-03T10:19:51;4.57;;;1.90;;
12812;SDS011;6471;50.932;6.934;2023-02-03T10:22:20;5.43;;;1.80;;
12812;SDS011;6471;50.932;6.934;2023-02-03T10:24:51;4.73;;;1.97;;
12812;SDS011;6471;50.932;6.934;2023-02-03T10:27:21;2.60;;;1.90;;
12812;SDS011;6471;50.932;6.934;2023-02-03T10:29:50;6.83;;;1.83;;
12812;SDS011;6471;50.932;6.934;2023-02-03T10:32:18;5.43;;;1.90;;
12812;SDS011;6471;50.932;6.934;2023-02-03T10:34:47;4.83;;;2.23;;
12812;SDS011;6471;50.932;6.934;2023-02-03T10:37:16;4.27;;;2.30;;
12812;SDS011;6471;50.932;6.934;2023-02-03T10:39:51;3.43;;;2.20;;
12812;SDS011;6471;50.932;6.934;2023-02-03T10:42:18;5.30;;;2.23;;
12812;SDS011;6471;50.932;6.934;2023-02-03T10:51:39;3.00;;;2.30;;
12812;SDS011;6471;50.932;6.934;2023-02-03T11:00:23;4.53;;;2.50;;
12812;SDS011;6471;50.932;6.934;2023-02-03T11:03:07;2.93;;;1.97;;
12812;SDS011;6471;50.932;6.934;2023-02-03T11:08:46;5.50;;;2.20;;
12812;SDS011;6471;50.932;6.934;2023-02-03T11:11:19;5.60;;;2.47;;
12812;SDS011;6471;50.932;6.934;2023-02-03T11:13:53;4.33;;;2.67;;
12812;SDS011;6471;50.932;6.934;2023-02-03T11:16:29;4.20;;;2.33;;
12812;SDS011;6471;50.932;6.934;2023-02-03T11:19:13;4.47;;;2.63;;
12812;SDS011;6471;50.932;6.934;2023-02-03T11:22:04;5.20;;;2.33;;
12812;SDS011;6471;50.932;6.934;2023-02-03T11:24:43;3.50;;;2.63;;
12812;SDS011;6471;50.932;6.934;2023-02-03T11:27:19;4.33;;;2.70;;
12812;SDS011;6471;50.932;6.934;2023-02-03T11:29:49;4.60;;;2.97;;
12812;SDS011;6471;50.932;6.934;2023-02-03T11:32:20;6.50;;;2.97;;
12812;SDS011;6471;50.932;6.934;2023-02-03T11:41:18;5.97;;;3.10;;
12812;SDS011;6471;50.932;6.934;2023-02-03T11:44:18;6.00;;;3.07;;
12812;SDS011;6471;50.932;6.934;2023-02-03T11:47:12;4.77;;;2.70;;
12812;SDS011;6471;50.932;6.934;2023-02-03T11:49:53;3.80;;;3.30;;
12812;SDS011;6471;50.932;6.934;2023-02-03T11:52:38;7.27;;;3.60;;
12812;SDS011;6471;50.932;6.934;2023-02-03T11:55:20;3.30;;;2.90;;
12812;SDS011;6471;50.932;6.934;2023-02-03T11:58:19;5.70;;;3.40;;
12812;SDS011;6471;50.932;6.934;2023-02-03T12:04:41;8.50;;;3.90;;
12812;SDS011;6471;50.932;6.934;2023-02-03T12:10:31;6.77;;;4.53;;
12812;SDS011;6471;50.932;6.934;2023-02-03T12:29:12;8.37;;;5.13;;
12812;SDS011;6471;50.932;6.934;2023-02-03T12:34:35;7.23;;;5.17;;
12812;SDS011;6471;50.932;6.934;2023-02-03T12:37:22;8.87;;;5.57;;
12812;SDS011;6471;50.932;6.934;2023-02-03T12:40:06;7.00;;;5.00;;
12812;SDS011;6471;50.932;6.934;2023-02-03T12:46:13;9.27;;;5.10;;
12812;SDS011;6471;50.932;6.934;2023-02-03T13:18:26;7.37;;;5.63;;
12812;SDS011;6471;50.932;6.934;2023-02-03T13:20:56;9.20;;;6.40;;
12812;SDS011;6471;50.932;6.934;2023-02-03T13:23:31;9.13;;;6.13;;
12812;SDS011;6471;50.932;6.934;2023-02-03T13:32:23;10.10;;;6.80;;
12812;SDS011;6471;50.932;6.934;2023-02-03T13:40:21;11.57;;;7.43;;
12812;SDS011;6471;50.932;6.934;2023-02-03T13:43:26;10.23;;;7.50;;
12812;SDS011;6471;50.932;6.934;2023-02-03T13:45:49;13.57;;;7.77;;
12812;SDS011;6471;50.932;6.934;2023-02-03T13:48:28;11.97;;;7.63;;
12812;SDS011;6471;50.932;6.934;2023-02-03T13:53:57;9.93;;;7.27;;
12812;SDS011;6471;50.932;6.934;2023-02-03T13:56:27;11.10;;;7.27;;
12812;SDS011;6471;50.932;6.934;2023-02-03T14:22:45;11.47;;;7.83;;
12812;SDS011;6471;50.932;6.934;2023-02-03T14:34:26;10.63;;;6.77;;
12812;SDS011;6471;50.932;6.934;2023-02-03T14:42:37;8.80;;;6.63;;
12812;SDS011;6471;50.932;6.934;2023-02-03T14:48:09;6.90;;;5.80;;
12812;SDS011;6471;50.932;6.934;2023-02-03T14:50:54;10.47;;;5.83;;
12812;SDS011;6471;50.932;6.934;2023-02-03T14:59:20;12.33;;;5.43;;
12812;SDS011;6471;50.932;6.934;2023-02-03T15:08:03;8.20;;;4.97;;
12812;SDS011;6471;50.932;6.934;2023-02-03T15:10:42;7.90;;;4.60;;
12812;SDS011;6471;50.932;6.934;2023-02-03T15:13:22;7.83;;;4.40;;
12812;SDS011;6471;50.932;6.934;2023-02-03T15:15:56;8.57;;;4.53;;
12812;SDS011;6471;50.932;6.934;2023-02-03T15:18:31;7.87;;;4.47;;
12812;SDS011;6471;50.932;6.934;2023-02-03T15:21:02;6.47;;;3.97;;
12812;SDS011;6471;50.932;6.934;2023-02-03T15:23:37;9.60;;;3.97;;
12812;SDS011;6471;50.932;6.934;2023-02-03T15:26:24;6.00;;;3.53;;
12812;SDS011;6471;50.932;6.934;2023-02-03T15:28:57;7.87;;;3.40;;
12812;SDS011;6471;50.932;6.934;2023-02-03T15:34:38;6.70;;;3.50;;
12812;SDS011;6471;50.932;6.934;2023-02-03T15:37:29;5.67;;;3.40;;
12812;SDS011;6471;50.932;6.934;2023-02-03T15:40:00;7.73;;;3.53;;
12812;SDS011;6471;50.932;6.934;2023-02-03T15:42:37;6.00;;;3.47;;
12812;SDS011;6471;50.932;6.934;2023-02-03T15:45:14;7.33;;;3.50;;
12812;SDS011;6471;50.932;6.934;2023-02-03T15:56:49;9.07;;;3.43;;
12812;SDS011;6471;50.932;6.934;2023-02-03T16:03:12;6.90;;;3.27;;
12812;SDS011;6471;50.932;6.934;2023-02-03T16:23:48;6.73;;;3.80;;
12812;SDS011;6471;50.932;6.934;2023-02-03T16:44:02;9.23;;;4.27;;
12812;SDS011;6471;50.932;6.934;2023-02-03T16:46:47;10.93;;;4.03;;
12812;SDS011;6471;50.932;6.934;2023-02-03T16:49:35;7.30;;;3.53;;
12812;SDS011;6471;50.932;6.934;2023-02-03T16:55:15;7.27;;;4.40;;
12812;SDS011;6471;50.932;6.934;2023-02-03T17:00:57;8.90;;;3.43;;
12812;SDS011;6471;50.932;6.934;2023-02-03T17:06:13;8.43;;;3.47;;
12812;SDS011;6471;50.932;6.934;2023-02-03T17:08:39;14.10;;;3.53;;
12812;SDS011;6471;50.932;6.934;2023-02-03T17:11:18;7.53;;;3.10;;
12812;SDS011;6471;50.932;6.934;2023-02-03T17:14:11;11.70;;;3.23;;
12812;SDS011;6471;50.932;6.934;2023-02-03T17:16:39;10.80;;;3.90;;
12812;SDS011;6471;50.932;6.934;2023-02-03T17:19:08;9.70;;;3.77;;
12812;SDS011;6471;50.932;6.934;2023-02-03T17:21:40;10.13;;;3.03;;
12812;SDS011;6471;50.932;6.934;2023-02-03T17:27:41;9.93;;;2.70;;
12812;SDS011;6471;50.932;6.934;2023-02-03T17:30:08;11.87;;;3.17;;
12812;SDS011;6471;50.932;6.934;2023-02-03T17:38:02;9.70;;;3.30;;
12812;SDS011;6471;50.932;6.934;2023-02-03T17:40:31;10.80;;;2.97;;
12812;SDS011;6471;50.932;6.934;2023-02-03T17:42:58;10.33;;;2.60;;
12812;SDS011;6471;50.932;6.934;2023-02-03T17:45:24;8.20;;;2.83;;
12812;SDS011;6471;50.932;6.934;2023-02-03T17:47:55;13.50;;;3.17;;
12812;SDS011;6471;50.932;6.934;2023-02-03T17:50:24;12.10;;;2.83;;
12812;SDS011;6471;50.932;6.934;2023-02-03T17:52:50;10.20;;;2.93;;
12812;SDS011;6471;50.932;6.934;2023-02-03T17:55:16;8.77;;;2.73;;
12812;SDS011;6471;50.932;6.934;2023-02-03T17:57:42;8.70;;;3.03;;
12812;SDS011;6471;50.932;6.934;2023-02-03T18:00:11;13.40;;;3.10;;
12812;SDS011;6471;50.932;6.934;2023-02-03T18:13:26;10.13;;;3.23;;
12812;SDS011;6471;50.932;6.934;2023-02-03T18:15:54;11.50;;;3.20;;
12812;SDS011;6471;50.932;6.934;2023-02-03T18:18:48;12.87;;;2.90;;
12812;SDS011;6471;50.932;6.934;2023-02-03T18:21:18;14.27;;;2.83;;
12812;SDS011;6471;50.932;6.934;2023-02-03T18:23:44;8.57;;;3.10;;
12812;SDS011;6471;50.932;6.934;2023-02-03T18:57:18;10.30;;;3.07;;
12812;SDS011;6471;50.932;6.934;2023-02-03T19:39:06;9.83;;;4.30;;
12812;SDS011;6471;50.932;6.934;2023-02-03T19:45:15;14.73;;;4.90;;
12812;SDS011;6471;50.932;6.934;2023-02-03T19:48:31;14.77;;;5.23;;
12812;SDS011;6471;50.932;6.934;2023-02-03T20:18:44;19.33;;;9.30;;
12812;SDS011;6471;50.932;6.934;2023-02-03T20:21:10;16.53;;;8.23;;
12812;SDS011;6471;50.932;6.934;2023-02-03T20:23:38;14.37;;;7.30;;
12812;SDS011;6471;50.932;6.934;2023-02-03T20:26:04;14.67;;;7.63;;
12812;SDS011;6471;50.932;6.934;2023-02-03T20:28:36;12.77;;;6.70;;
12812;SDS011;6471;50.932;6.934;2023-02-03T20:31:42;14.37;;;6.43;;
12812;SDS011;6471;50.932;6.934;2023-02-03T20:34:28;15.00;;;7.13;;
12812;SDS011;6471;50.932;6.934;2023-02-03T20:40:12;13.93;;;6.37;;
12812;SDS011;6471;50.932;6.934;2023-02-03T20:42:49;12.43;;;5.97;;
12812;SDS011;6471;50.932;6.934;2023-02-03T20:45:23;11.23;;;5.87;;
12812;SDS011;6471;50.932;6.934;2023-02-03T20:48:14;13.73;;;5.03;;
12812;SDS011;6471;50.932;6.934;2023-02-03T20:51:07;14.77;;;5.10;;
12812;SDS011;6471;50.932;6.934;2023-02-03T20:54:18;11.20;;;4.57;;
12812;SDS011;6471;50.932;6.934;2023-02-03T20:59:55;12.93;;;5.10;;
12812;SDS011;6471;50.932;6.934;2023-02-03T21:08:48;14.77;;;4.10;;
12812;SDS011;6471;50.932;6.934;2023-02-03T21:14:05;13.10;;;4.00;;
12812;SDS011;6471;50.932;6.934;2023-02-03T21:16:41;11.73;;;3.60;;
12812;SDS011;6471;50.932;6.934;2023-02-03T21:19:25;12.50;;;3.67;;
12812;SDS011;6471;50.932;6.934;2023-02-03T21:21:56;13.63;;;3.80;;
12812;SDS011;6471;50.932;6.934;2023-02-03T21:26:49;13.33;;;3.40;;
12812;SDS011;6471;50.932;6.934;2023-02-03T21:29:37;12.17;;;3.93;;
12812;SDS011;6471;50.932;6.934;2023-02-03T21:32:02;11.87;;;3.60;;
12812;SDS011;6471;50.932;6.934;2023-02-03T21:37:03;10.73;;;2.97;;
12812;SDS011;6471;50.932;6.934;2023-02-03T21:39:32;12.73;;;2.90;;
12812;SDS011;6471;50.932;6.934;2023-02-03T21:42:04;11.20;;;3.50;;
12812;SDS011;6471;50.932;6.934;2023-02-03T21:44:39;14.80;;;3.40;;
12812;SDS011;6471;50.932;6.934;2023-02-03T21:50:35;10.70;;;3.17;;
12812;SDS011;6471;50.932;6.934;2023-02-03T21:55:56;13.77;;;3.67;;
12812;SDS011;6471;50.932;6.934;2023-02-03T21:58:25;10.73;;;3.30;;
12812;SDS011;6471;50.932;6.934;2023-02-03T22:01:00;14.40;;;3.70;;
12812;SDS011;6471;50.932;6.934;2023-02-03T22:03:36;15.47;;;3.23;;
12812;SDS011;6471;50.932;6.934;2023-02-03T22:08:57;12.67;;;3.23;;
12812;SDS011;6471;50.932;6.934;2023-02-03T22:11:24;12.23;;;3.30;;
12812;SDS011;6471;50.932;6.934;2023-02-03T22:13:51;12.63;;;3.30;;
12812;SDS011;6471;50.932;6.934;2023-02-03T22:16:17;10.93;;;2.77;;
12812;SDS011;6471;50.932;6.934;2023-02-03T22:18:44;17.07;;;4.17;;
12812;SDS011;6471;50.932;6.934;2023-02-03T22:21:21;12.43;;;3.03;;
12812;SDS011;6471;50.932;6.934;2023-02-03T22:23:50;11.90;;;3.13;;
12812;SDS011;6471;50.932;6.934;2023-02-03T22:26:27;11.63;;;3.27;;
12812;SDS011;6471;50.932;6.934;2023-02-03T22:29:14;13.40;;;4.20;;
12812;SDS011;6471;50.932;6.934;2023-02-03T22:31:40;14.53;;;3.50;;
12812;SDS011;6471;50.932;6.934;2023-02-03T22:34:17;15.07;;;3.30;;
12812;SDS011;6471;50.932;6.934;2023-02-03T22:36:43;13.70;;;3.43;;
12812;SDS011;6471;50.932;6.934;2023-02-03T22:39:10;15.73;;;3.77;;
12812;SDS011;6471;50.932;6.934;2023-02-03T22:41:36;11.60;;;3.27;;
12812;SDS011;6471;50.932;6.934;2023-02-03T22:44:11;15.40;;;3.53;;
12812;SDS011;6471;50.932;6.934;2023-02-03T22:47:06;12.13;;;3.57;;
12812;SDS011;6471;50.932;6.934;2023-02-03T22:49:38;14.10;;;3.50;;
12812;SDS011;6471;50.932;6.934;2023-02-03T22:52:05;12.30;;;3.70;;
12812;SDS011;6471;50.932;6.934;2023-02-03T22:54:31;16.50;;;4.00;;
12812;SDS011;6471;50.932;6.934;2023-02-03T22:57:10;14.23;;;3.70;;
12812;SDS011;6471;50.932;6.934;2023-02-03T23:00:07;9.60;;;3.20;;
12812;SDS011;6471;50.932;6.934;2023-02-03T23:02:43;10.07;;;3.00;;
12812;SDS011;6471;50.932;6.934;2023-02-03T23:05:12;13.53;;;3.10;;
12812;SDS011;6471;50.932;6.934;2023-02-03T23:07:38;12.97;;;3.83;;
12812;SDS011;6471;50.932;6.934;2023-02-03T23:10:09;15.57;;;4.60;;
12812;SDS011;6471;50.932;6.934;2023-02-03T23:12:42;16.00;;;3.40;;
12812;SDS011;6471;50.932;6.934;2023-02-03T23:15:36;11.87;;;3.30;;
12812;SDS011;6471;50.932;6.934;2023-02-03T23:18:20;13.57;;;3.63;;
12812;SDS011;6471;50.932;6.934;2023-02-03T23:24:21;13.73;;;3.93;;
12812;SDS011;6471;50.932;6.934;2023-02-03T23:26:50;12.10;;;3.30;;
12812;SDS011;6471;50.932;6.934;2023-02-03T23:32:26;13.17;;;3.70;;
12812;SDS011;6471;50.932;6.934;2023-02-03T23:40:58;7.37;;;3.23;;
12812;SDS011;6471;50.932;6.934;2023-02-03T23:43:35;6.70;;;3.10;;
12812;SDS011;6471;50.932;6.934;2023-02-03T23:46:01;11.83;;;3.20;;
12812;SDS011;6471;50.932;6.934;2023-02-03T23:48:28;12.90;;;3.87;;
12812;SDS011;6471;50.932;6.934;2023-02-03T23:51:08;13.00;;;3.37;;
12812;SDS011;6471;50.932;6.934;2023-02-03T23:53:51;12.60;;;3.47;;
12812;SDS011;6471;50.932;6.934;2023-02-03T23:56:17;11.73;;;3.20;;
12812;SDS011;6471;50.932;6.934;2023-02-03T23:58:43;16.63;;;3.80;;
